createdAt,value
2023-02-13T00:02:24.385Z,28.14
2023-02-13T00:04:50.710Z,27.72
2023-02-13T00:07:17.027Z,27.05
2023-02-13T00:09:43.324Z,26.68
2023-02-13T00:12:09.626Z,26.58
2023-02-13T00:14:35.939Z,25.93
2023-02-13T00:17:02.231Z,26.28
2023-02-13T00:19:28.528Z,24.13
2023-02-13T00:21:54.847Z,24.80
2023-02-13T00:24:21.139Z,24.42
2023-02-13T00:26:47.440Z,28.87
2023-02-13T00:29:13.785Z,28.27
2023-02-13T00:31:40.187Z,27.94
2023-02-13T00:34:10.342Z,29.14
2023-02-13T00:36:36.673Z,28.98
2023-02-13T00:39:02.960Z,29.76
2023-02-13T00:41:29.249Z,31.10
2023-02-13T00:43:55.554Z,31.23
2023-02-13T00:46:21.885Z,31.85
2023-02-13T00:48:48.167Z,32.13
2023-02-13T00:51:14.497Z,31.03
2023-02-13T00:53:40.826Z,33.25
2023-02-13T00:56:07.297Z,35.13
2023-02-13T00:58:33.669Z,36.43
2023-02-13T01:01:00.130Z,34.78
2023-02-13T01:03:26.634Z,32.95
2023-02-13T01:05:52.966Z,33.23
2023-02-13T01:08:19.264Z,32.28
2023-02-13T01:10:45.567Z,31.45
2023-02-13T01:13:11.878Z,30.14
2023-02-13T01:15:38.208Z,31.66
2023-02-13T01:18:04.509Z,29.86
2023-02-13T01:20:30.832Z,29.77
2023-02-13T01:22:57.126Z,30.48
2023-02-13T01:25:23.422Z,30.60
2023-02-13T01:27:49.741Z,30.39
2023-02-13T01:30:16.042Z,31.16
2023-02-13T01:32:42.344Z,30.56
2023-02-13T01:35:08.709Z,30.60
2023-02-13T01:37:35.000Z,30.05
2023-02-13T01:40:01.289Z,32.71
2023-02-13T01:42:27.600Z,32.76
2023-02-13T01:44:53.886Z,33.86
2023-02-13T01:47:20.185Z,33.77
2023-02-13T01:49:46.499Z,34.18
2023-02-13T01:52:12.788Z,34.60
2023-02-13T01:54:39.081Z,34.22
2023-02-13T01:57:05.391Z,33.28
2023-02-13T01:59:31.691Z,33.41
2023-02-13T02:01:58.131Z,32.79
2023-02-13T02:04:24.558Z,33.54
2023-02-13T02:06:50.863Z,32.70
2023-02-13T02:09:17.160Z,32.00
2023-02-13T02:11:43.465Z,31.97
2023-02-13T02:14:09.784Z,31.10
2023-02-13T02:16:36.082Z,30.04
2023-02-13T02:19:02.402Z,31.20
2023-02-13T02:21:28.697Z,31.05
2023-02-13T02:23:54.991Z,31.22
2023-02-13T02:26:21.305Z,31.68
2023-02-13T02:28:47.662Z,30.52
2023-02-13T02:31:14.045Z,31.59
2023-02-13T02:33:40.457Z,30.21
2023-02-13T02:36:06.764Z,30.32
2023-02-13T02:38:33.064Z,30.30
2023-02-13T02:40:59.868Z,30.35
2023-02-13T02:43:26.352Z,30.80
2023-02-13T02:45:52.651Z,31.52
2023-02-13T02:48:18.979Z,31.72
2023-02-13T02:50:45.277Z,32.06
2023-02-13T02:53:11.561Z,32.33
2023-02-13T02:55:37.881Z,31.76
2023-02-13T02:58:04.181Z,32.36
2023-02-13T03:00:30.501Z,32.56
2023-02-13T03:02:56.832Z,32.57
2023-02-13T03:05:23.134Z,33.65
2023-02-13T03:07:49.432Z,33.70
2023-02-13T03:10:15.761Z,33.15
2023-02-13T03:12:42.066Z,33.96
2023-02-13T03:15:08.366Z,33.77
2023-02-13T03:17:34.675Z,34.14
2023-02-13T03:20:00.954Z,34.01
2023-02-13T03:22:27.238Z,34.03
2023-02-13T03:24:53.540Z,34.39
2023-02-13T03:27:19.820Z,36.52
2023-02-13T03:29:46.114Z,36.84
2023-02-13T03:32:12.428Z,36.63
2023-02-13T03:34:38.714Z,35.58
2023-02-13T03:37:05.022Z,36.66
2023-02-13T03:39:31.326Z,37.06
2023-02-13T03:41:57.624Z,37.07
2023-02-13T03:44:23.914Z,37.07
2023-02-13T03:46:50.662Z,37.72
2023-02-13T03:49:16.978Z,38.91
2023-02-13T03:51:43.272Z,40.15
2023-02-13T03:54:09.581Z,40.49
2023-02-13T03:56:35.873Z,40.03
2023-02-13T03:59:02.169Z,40.26
2023-02-13T04:01:28.473Z,39.96
2023-02-13T04:03:54.751Z,41.06
2023-02-13T04:06:21.041Z,40.48
2023-02-13T04:08:47.344Z,41.07
2023-02-13T04:11:13.642Z,41.40
2023-02-13T04:13:39.938Z,40.54
2023-02-13T04:16:06.239Z,41.24
2023-02-13T04:18:32.529Z,40.09
2023-02-13T04:20:59.069Z,40.34
2023-02-13T04:23:25.551Z,39.64
2023-02-13T04:25:53.626Z,39.40
2023-02-13T04:28:19.990Z,40.00
2023-02-13T04:30:46.382Z,40.25
2023-02-13T04:33:12.707Z,40.80
2023-02-13T04:35:38.993Z,40.49
2023-02-13T04:38:05.400Z,40.61
2023-02-13T04:40:31.714Z,41.18
2023-02-13T04:42:58.004Z,41.92
2023-02-13T04:45:24.323Z,40.60
2023-02-13T04:47:50.627Z,40.44
2023-02-13T04:50:16.920Z,40.55
2023-02-13T04:52:43.270Z,40.73
2023-02-13T04:55:09.575Z,39.79
2023-02-13T04:57:35.875Z,39.92
2023-02-13T05:00:02.196Z,39.66
2023-02-13T05:02:28.500Z,41.51
2023-02-13T05:04:54.806Z,41.58
2023-02-13T05:07:21.120Z,42.30
2023-02-13T05:09:47.421Z,42.42
2023-02-13T05:12:13.717Z,42.11
2023-02-13T05:14:40.186Z,42.07
2023-02-13T05:17:06.497Z,41.80
2023-02-13T05:19:32.805Z,41.79
2023-02-13T05:21:59.120Z,42.30
2023-02-13T05:24:25.412Z,41.97
2023-02-13T05:26:51.702Z,42.09
2023-02-13T05:29:18.025Z,44.00
2023-02-13T05:31:44.482Z,44.97
2023-02-13T05:34:10.837Z,45.11
2023-02-13T05:36:37.160Z,44.33
2023-02-13T05:39:03.451Z,45.01
2023-02-13T05:41:29.746Z,46.64
2023-02-13T05:43:56.052Z,49.04
2023-02-13T05:46:22.409Z,51.67
2023-02-13T05:48:48.740Z,52.23
2023-02-13T05:51:15.055Z,49.65
2023-02-13T05:53:41.356Z,48.01
2023-02-13T05:56:07.658Z,45.23
2023-02-13T05:58:34.029Z,44.45
2023-02-13T06:01:00.510Z,45.01
2023-02-13T06:03:26.895Z,45.33
2023-02-13T06:05:53.249Z,45.82
2023-02-13T06:08:19.656Z,46.27
2023-02-13T06:10:45.941Z,47.06
2023-02-13T06:13:12.238Z,46.25
2023-02-13T06:15:38.598Z,47.50
2023-02-13T06:18:04.934Z,47.31
2023-02-13T06:20:31.253Z,47.89
2023-02-13T06:22:57.538Z,47.38
2023-02-13T06:25:23.828Z,47.45
2023-02-13T06:27:50.133Z,47.75
2023-02-13T06:30:16.429Z,47.69
2023-02-13T06:32:42.726Z,46.75
2023-02-13T06:35:09.033Z,47.81
2023-02-13T06:37:35.328Z,47.95
2023-02-13T06:40:01.622Z,49.39
2023-02-13T06:42:27.920Z,47.69
2023-02-13T06:44:54.209Z,48.00
2023-02-13T06:47:20.491Z,46.63
2023-02-13T06:49:46.800Z,46.84
2023-02-13T06:52:13.086Z,46.30
2023-02-13T06:54:47.387Z,46.04
2023-02-13T06:57:14.199Z,45.91
2023-02-13T06:59:40.501Z,46.89
2023-02-13T07:02:06.803Z,46.58
2023-02-13T07:04:33.185Z,46.47
2023-02-13T07:06:59.485Z,46.52
2023-02-13T07:09:25.778Z,47.22
2023-02-13T07:11:52.398Z,46.76
2023-02-13T07:14:18.801Z,47.55
2023-02-13T07:16:45.095Z,47.17
2023-02-13T07:19:11.402Z,47.72
2023-02-13T07:21:37.685Z,47.65
2023-02-13T07:24:04.359Z,48.24
2023-02-13T07:26:31.556Z,49.27
2023-02-13T07:29:10.468Z,48.15
2023-02-13T07:31:37.680Z,44.19
2023-02-13T07:34:04.018Z,43.25
2023-02-13T07:36:30.320Z,40.60
2023-02-13T07:38:56.664Z,42.22
2023-02-13T07:41:22.976Z,41.71
2023-02-13T07:43:49.273Z,42.34
2023-02-13T07:46:15.603Z,42.04
2023-02-13T07:48:41.902Z,43.28
2023-02-13T07:51:08.203Z,45.64
2023-02-13T07:53:35.620Z,45.25
2023-02-13T07:56:01.912Z,45.83
2023-02-13T07:58:28.212Z,45.40
2023-02-13T08:00:54.520Z,45.94
2023-02-13T08:03:20.814Z,46.17
2023-02-13T08:05:47.102Z,46.59
2023-02-13T08:08:13.444Z,45.41
2023-02-13T08:10:39.749Z,46.58
2023-02-13T08:13:06.045Z,44.74
2023-02-13T08:15:32.353Z,42.35
2023-02-13T08:17:58.671Z,40.88
2023-02-13T08:20:24.970Z,40.20
2023-02-13T08:22:51.278Z,41.30
2023-02-13T08:25:17.578Z,43.56
2023-02-13T08:27:43.957Z,42.65
2023-02-13T08:30:10.276Z,42.71
2023-02-13T08:32:52.106Z,40.07
2023-02-13T08:35:20.022Z,40.97
2023-02-13T08:37:47.612Z,40.04
2023-02-13T08:40:14.035Z,40.65
2023-02-13T08:42:40.352Z,41.10
2023-02-13T08:45:06.663Z,40.71
2023-02-13T08:47:32.972Z,40.30
2023-02-13T08:49:59.306Z,40.56
2023-02-13T08:52:25.610Z,41.54
2023-02-13T08:54:51.894Z,42.49
2023-02-13T08:57:18.192Z,41.29
2023-02-13T08:59:44.485Z,42.32
2023-02-13T09:02:10.788Z,43.75
2023-02-13T09:04:37.110Z,45.48
2023-02-13T09:07:03.414Z,44.84
2023-02-13T09:09:29.776Z,44.05
2023-02-13T09:11:56.132Z,43.68
2023-02-13T09:14:24.222Z,44.31
2023-02-13T09:16:51.328Z,44.20
2023-02-13T09:19:17.680Z,46.97
2023-02-13T09:21:43.968Z,50.33
2023-02-13T09:24:10.264Z,51.32
2023-02-13T09:26:36.581Z,49.25
2023-02-13T09:29:02.878Z,47.99
2023-02-13T09:31:29.755Z,47.15
2023-02-13T09:33:56.211Z,51.74
2023-02-13T09:36:22.506Z,51.63
2023-02-13T09:38:48.807Z,51.72
2023-02-13T09:41:17.156Z,50.18
2023-02-13T09:43:43.699Z,51.21
2023-02-13T09:46:10.078Z,50.91
2023-02-13T09:48:36.464Z,50.03
2023-02-13T09:51:02.755Z,50.07
2023-02-13T09:53:29.212Z,47.73
2023-02-13T09:55:55.827Z,48.30
2023-02-13T09:58:22.462Z,50.44
2023-02-13T10:00:50.645Z,49.07
2023-02-13T10:03:17.211Z,48.73
2023-02-13T10:05:43.516Z,50.19
2023-02-13T10:08:09.830Z,50.83
2023-02-13T10:10:36.175Z,54.03
2023-02-13T10:13:02.470Z,52.31
2023-02-13T10:15:28.802Z,53.71
2023-02-13T10:17:55.186Z,55.32
2023-02-13T10:20:21.487Z,52.79
2023-02-13T10:22:47.790Z,52.35
2023-02-13T10:25:14.101Z,53.56
2023-02-13T10:27:40.392Z,55.56
2023-02-13T10:30:06.731Z,53.34
2023-02-13T10:32:33.068Z,51.05
2023-02-13T10:34:59.359Z,49.74
2023-02-13T10:37:25.643Z,51.80
2023-02-13T10:39:51.954Z,53.20
2023-02-13T10:42:18.228Z,52.50
2023-02-13T10:44:44.519Z,51.37
2023-02-13T10:47:10.833Z,50.93
2023-02-13T10:49:37.128Z,50.05
2023-02-13T10:52:03.429Z,50.33
2023-02-13T10:54:29.741Z,50.57
2023-02-13T10:56:56.042Z,49.42
2023-02-13T10:59:22.396Z,50.39
2023-02-13T11:01:48.905Z,50.09
2023-02-13T11:04:15.345Z,50.96
2023-02-13T11:06:41.700Z,49.90
2023-02-13T11:09:08.010Z,51.15
2023-02-13T11:11:34.355Z,50.90
2023-02-13T11:14:00.662Z,51.40
2023-02-13T11:16:27.017Z,50.50
2023-02-13T11:18:53.503Z,50.73
2023-02-13T11:21:19.799Z,50.28
2023-02-13T11:23:46.140Z,51.27
2023-02-13T11:26:12.452Z,50.36
2023-02-13T11:28:38.826Z,52.24
2023-02-13T11:31:05.228Z,51.57
2023-02-13T11:33:31.567Z,51.39
2023-02-13T11:35:58.155Z,51.44
2023-02-13T11:38:24.643Z,51.19
2023-02-13T11:40:50.938Z,50.53
2023-02-13T11:43:17.230Z,51.31
2023-02-13T11:45:43.542Z,49.80
2023-02-13T11:48:09.842Z,50.19
2023-02-13T11:50:36.173Z,50.45
2023-02-13T11:53:02.468Z,50.27
2023-02-13T11:55:28.775Z,49.09
2023-02-13T11:57:55.071Z,51.08
2023-02-13T12:00:21.380Z,51.22
2023-02-13T12:02:47.924Z,50.28
2023-02-13T12:05:14.306Z,50.05
2023-02-13T12:07:40.619Z,50.59
2023-02-13T12:10:06.917Z,50.00
2023-02-13T12:12:33.217Z,50.18
2023-02-13T12:14:59.545Z,50.43
2023-02-13T12:17:31.871Z,50.87
2023-02-13T12:19:58.762Z,50.83
2023-02-13T12:22:25.094Z,51.20
2023-02-13T12:24:51.398Z,50.52
2023-02-13T12:27:17.714Z,50.02
2023-02-13T12:29:44.071Z,50.41
2023-02-13T12:32:10.362Z,49.91
2023-02-13T12:34:36.669Z,50.76
2023-02-13T12:37:02.977Z,50.11
2023-02-13T12:39:29.299Z,49.47
2023-02-13T12:41:55.588Z,50.28
2023-02-13T12:44:21.893Z,51.09
2023-02-13T12:46:48.209Z,49.56
2023-02-13T12:49:14.507Z,49.71
2023-02-13T12:51:40.811Z,50.21
2023-02-13T12:54:07.128Z,49.64
2023-02-13T12:56:33.448Z,49.83
2023-02-13T12:58:59.777Z,49.85
2023-02-13T13:01:26.138Z,49.76
2023-02-13T13:03:52.436Z,50.01
2023-02-13T13:06:18.749Z,49.85
2023-02-13T13:08:45.054Z,48.79
2023-02-13T13:11:11.347Z,48.63
2023-02-13T13:13:37.641Z,49.31
2023-02-13T13:16:03.929Z,48.27
2023-02-13T13:18:30.429Z,49.31
2023-02-13T13:20:56.977Z,49.77
2023-02-13T13:23:23.457Z,50.29
2023-02-13T13:25:49.767Z,49.49
2023-02-13T13:28:16.114Z,49.86
2023-02-13T13:30:42.439Z,51.32
2023-02-13T13:33:08.780Z,53.07
2023-02-13T13:35:35.117Z,51.22
2023-02-13T13:38:01.436Z,50.03
2023-02-13T13:40:27.735Z,49.74
2023-02-13T13:42:54.044Z,48.64
2023-02-13T13:45:20.334Z,49.48
2023-02-13T13:47:46.621Z,52.13
2023-02-13T13:50:12.922Z,53.68
2023-02-13T13:52:39.229Z,54.07
2023-02-13T13:55:05.543Z,54.48
2023-02-13T13:57:31.859Z,53.93
2023-02-13T13:59:58.158Z,54.24
2023-02-13T14:02:24.514Z,53.12
2023-02-13T14:04:50.846Z,53.67
2023-02-13T14:07:17.134Z,53.83
2023-02-13T14:09:43.427Z,51.41
2023-02-13T14:12:09.728Z,51.11
2023-02-13T14:14:36.020Z,50.55
2023-02-13T14:17:02.349Z,50.75
2023-02-13T14:19:28.669Z,50.85
2023-02-13T14:21:54.962Z,51.14
2023-02-13T14:24:21.272Z,50.94
2023-02-13T14:26:50.331Z,49.82
2023-02-13T14:29:18.687Z,50.64
2023-02-13T14:31:45.050Z,51.90
2023-02-13T14:34:11.398Z,52.19
2023-02-13T14:36:37.682Z,52.91
2023-02-13T14:39:03.961Z,53.02
2023-02-13T14:41:30.346Z,51.59
2023-02-13T14:43:56.638Z,52.76
2023-02-13T14:46:22.972Z,53.35
2023-02-13T14:48:49.292Z,53.27
2023-02-13T14:51:15.587Z,52.46
2023-02-13T14:53:41.873Z,52.90
2023-02-13T14:56:08.181Z,52.05
2023-02-13T14:58:34.480Z,53.81
2023-02-13T15:01:00.929Z,53.75
2023-02-13T15:03:27.259Z,53.22
2023-02-13T15:05:53.556Z,53.64
2023-02-13T15:08:19.837Z,52.61
2023-02-13T15:10:46.146Z,53.75
2023-02-13T15:13:12.432Z,53.51
2023-02-13T15:15:38.757Z,53.84
2023-02-13T15:18:05.088Z,53.31
2023-02-13T15:20:31.376Z,53.04
2023-02-13T15:22:57.672Z,53.06
2023-02-13T15:25:26.374Z,53.15
2023-02-13T15:27:53.003Z,53.31
2023-02-13T15:30:19.368Z,54.69
2023-02-13T15:32:45.717Z,54.15
2023-02-13T15:35:12.016Z,54.39
2023-02-13T15:37:38.323Z,53.71
2023-02-13T15:40:04.640Z,54.86
2023-02-13T15:42:30.928Z,54.73
2023-02-13T15:44:57.222Z,54.87
2023-02-13T15:47:23.574Z,55.29
2023-02-13T15:49:49.858Z,54.62
2023-02-13T15:52:16.145Z,55.09
2023-02-13T15:54:42.470Z,53.86
2023-02-13T15:57:08.823Z,55.54
2023-02-13T15:59:35.130Z,55.60
2023-02-13T16:02:01.516Z,55.43
2023-02-13T16:04:27.825Z,56.12
2023-02-13T16:06:54.114Z,56.26
2023-02-13T16:09:22.016Z,56.26
2023-02-13T16:11:48.370Z,58.35
2023-02-13T16:14:14.662Z,55.98
2023-02-13T16:16:40.960Z,57.19
2023-02-13T16:19:07.255Z,56.62
2023-02-13T16:21:33.547Z,57.47
2023-02-13T16:23:59.865Z,57.19
2023-02-13T16:26:26.162Z,57.34
2023-02-13T16:28:52.457Z,57.67
2023-02-13T16:31:18.886Z,55.04
2023-02-13T16:33:45.507Z,57.89
2023-02-13T16:36:11.849Z,55.94
2023-02-13T16:38:38.185Z,55.58
2023-02-13T16:41:04.476Z,54.68
2023-02-13T16:43:30.764Z,54.63
2023-02-13T16:45:57.095Z,55.90
2023-02-13T16:48:23.411Z,54.57
2023-02-13T16:50:49.708Z,55.22
2023-02-13T16:53:16.061Z,53.27
2023-02-13T16:55:42.350Z,54.25
2023-02-13T16:58:08.638Z,51.92
2023-02-13T17:00:35.059Z,51.26
2023-02-13T17:03:01.442Z,52.92
2023-02-13T17:05:27.746Z,52.72
2023-02-13T17:07:54.165Z,50.39
2023-02-13T17:10:20.460Z,51.96
2023-02-13T17:12:46.755Z,52.52
2023-02-13T17:15:13.060Z,51.18
2023-02-13T17:17:39.343Z,47.80
2023-02-13T17:20:05.630Z,46.70
2023-02-13T17:22:32.010Z,48.62
2023-02-13T17:24:58.344Z,49.33
2023-02-13T17:27:24.657Z,47.96
2023-02-13T17:29:51.012Z,47.21
2023-02-13T17:32:17.354Z,45.15
2023-02-13T17:34:43.653Z,44.43
2023-02-13T17:37:09.951Z,46.20
2023-02-13T17:39:36.233Z,46.06
2023-02-13T17:42:02.525Z,46.56
2023-02-13T17:44:28.830Z,42.19
2023-02-13T17:46:55.117Z,38.45
2023-02-13T17:49:21.404Z,37.02
2023-02-13T17:51:47.718Z,35.61
2023-02-13T17:54:14.114Z,34.38
2023-02-13T17:56:40.407Z,35.20
2023-02-13T17:59:06.761Z,34.12
2023-02-13T18:01:33.096Z,34.37
2023-02-13T18:03:59.418Z,32.41
2023-02-13T18:06:25.742Z,31.42
2023-02-13T18:08:52.060Z,29.89
2023-02-13T18:11:18.342Z,29.97
2023-02-13T18:13:46.200Z,30.25
2023-02-13T18:16:12.524Z,31.47
2023-02-13T18:18:40.030Z,33.25
2023-02-13T18:21:06.358Z,34.29
2023-02-13T18:23:32.638Z,33.89
2023-02-13T18:25:58.931Z,34.35
2023-02-13T18:28:25.604Z,33.26
2023-02-13T18:30:51.989Z,32.01
2023-02-13T18:33:18.351Z,31.71
2023-02-13T18:35:44.658Z,32.61
2023-02-13T18:38:10.971Z,32.97
2023-02-13T18:40:37.260Z,34.05
2023-02-13T18:43:03.563Z,32.70
2023-02-13T18:45:29.867Z,31.91
2023-02-13T18:48:00.669Z,30.65
2023-02-13T18:50:26.981Z,29.77
2023-02-13T18:52:53.284Z,31.14
2023-02-13T18:55:19.579Z,33.03
2023-02-13T18:57:45.879Z,35.41
2023-02-13T19:00:12.163Z,38.81
2023-02-13T19:02:38.478Z,40.86
2023-02-13T19:05:04.850Z,38.75
2023-02-13T19:07:31.135Z,39.06
2023-02-13T19:09:57.434Z,38.76
2023-02-13T19:12:23.848Z,39.01
2023-02-13T19:14:50.145Z,39.47
2023-02-13T19:17:16.436Z,41.86
2023-02-13T19:19:42.758Z,42.85
2023-02-13T19:22:09.052Z,42.18
2023-02-13T19:24:35.345Z,42.71
2023-02-13T19:27:01.671Z,41.00
2023-02-13T19:29:27.964Z,44.48
2023-02-13T19:31:54.296Z,45.78
2023-02-13T19:34:20.652Z,45.57
2023-02-13T19:36:48.998Z,45.98
2023-02-13T19:39:15.306Z,45.79
2023-02-13T19:41:41.634Z,46.00
2023-02-13T19:44:07.930Z,46.85
2023-02-13T19:46:34.276Z,43.48
2023-02-13T19:49:00.613Z,39.72
2023-02-13T19:51:26.888Z,37.31
2023-02-13T19:53:53.186Z,35.93
2023-02-13T19:56:19.499Z,36.67
2023-02-13T19:58:45.784Z,41.61
2023-02-13T20:01:12.073Z,44.53
2023-02-13T20:03:38.394Z,40.79
2023-02-13T20:06:04.688Z,39.39
2023-02-13T20:08:30.969Z,38.66
2023-02-13T20:10:57.623Z,38.13
2023-02-13T20:13:24.136Z,37.73
2023-02-13T20:15:50.453Z,37.30
2023-02-13T20:18:16.769Z,37.91
2023-02-13T20:20:43.108Z,40.37
2023-02-13T20:23:09.398Z,41.58
2023-02-13T20:25:35.713Z,40.94
2023-02-13T20:28:01.998Z,37.77
2023-02-13T20:30:28.322Z,36.10
2023-02-13T20:32:54.674Z,36.26
2023-02-13T20:35:20.965Z,34.23
2023-02-13T20:37:47.255Z,33.18
2023-02-13T20:40:13.567Z,32.53
2023-02-13T20:42:39.884Z,31.21
2023-02-13T20:45:06.175Z,29.74
2023-02-13T20:47:32.471Z,30.70
2023-02-13T20:49:58.758Z,30.44
2023-02-13T20:52:25.056Z,33.73
2023-02-13T20:54:51.366Z,34.88
2023-02-13T20:57:17.670Z,35.88
2023-02-13T20:59:43.969Z,35.24
2023-02-13T21:02:10.279Z,36.50
2023-02-13T21:04:36.564Z,38.21
2023-02-13T21:07:02.858Z,38.90
2023-02-13T21:09:29.191Z,37.44
2023-02-13T21:11:55.471Z,35.51
2023-02-13T21:14:21.757Z,33.80
2023-02-13T21:16:48.124Z,33.34
2023-02-13T21:19:14.997Z,36.34
2023-02-13T21:21:41.307Z,36.05
2023-02-13T21:24:08.375Z,32.23
2023-02-13T21:26:34.889Z,30.09
2023-02-13T21:29:01.178Z,30.90
2023-02-13T21:31:27.624Z,28.06
2023-02-13T21:33:53.991Z,24.76
2023-02-13T21:36:20.278Z,23.35
2023-02-13T21:38:46.586Z,23.01
2023-02-13T21:41:12.879Z,24.41
2023-02-13T21:43:39.181Z,24.01
2023-02-13T21:46:05.514Z,23.95
2023-02-13T21:48:31.818Z,26.55
2023-02-13T21:50:58.419Z,26.87
2023-02-13T21:53:24.922Z,25.94
2023-02-13T21:55:51.206Z,25.50
2023-02-13T21:58:17.598Z,26.59
2023-02-13T22:00:43.962Z,26.69
2023-02-13T22:03:10.361Z,28.80
2023-02-13T22:05:36.673Z,32.35
2023-02-13T22:08:02.978Z,33.20
2023-02-13T22:10:29.261Z,32.58
2023-02-13T22:12:55.557Z,33.52
2023-02-13T22:15:21.865Z,34.02
2023-02-13T22:17:48.156Z,35.25
2023-02-13T22:20:14.490Z,35.98
2023-02-13T22:22:40.899Z,37.86
2023-02-13T22:25:07.186Z,39.02
2023-02-13T22:27:33.480Z,40.34
2023-02-13T22:29:59.842Z,39.85
2023-02-13T22:32:26.143Z,38.60
2023-02-13T22:34:52.436Z,38.61
2023-02-13T22:37:18.753Z,37.08
2023-02-13T22:39:45.073Z,37.24
2023-02-13T22:42:11.360Z,39.70
2023-02-13T22:44:37.660Z,36.92
2023-02-13T22:47:04.678Z,35.36
2023-02-13T22:49:31.926Z,35.06
2023-02-13T22:51:58.241Z,36.45
2023-02-13T22:54:24.533Z,36.16
2023-02-13T22:56:50.832Z,35.95
2023-02-13T22:59:17.136Z,35.14
2023-02-13T23:01:47.832Z,34.86
2023-02-13T23:04:14.158Z,33.16
2023-02-13T23:06:40.462Z,33.84
2023-02-13T23:09:06.754Z,38.05
2023-02-13T23:11:33.060Z,42.12
2023-02-13T23:13:59.392Z,40.62
2023-02-13T23:16:25.683Z,39.91
2023-02-13T23:18:51.976Z,39.57
2023-02-13T23:21:18.278Z,40.74
2023-02-13T23:23:44.578Z,40.83
2023-02-13T23:26:10.885Z,41.11
2023-02-13T23:28:37.258Z,40.44
2023-02-13T23:31:03.956Z,40.99
2023-02-13T23:33:30.392Z,40.77
2023-02-13T23:35:56.692Z,40.73
2023-02-13T23:38:22.979Z,37.75
2023-02-13T23:40:49.257Z,34.53
2023-02-13T23:43:15.552Z,36.59
2023-02-13T23:45:41.852Z,40.17
2023-02-13T23:48:08.145Z,40.37
2023-02-13T23:50:34.463Z,38.25
2023-02-13T23:53:00.749Z,40.43
2023-02-13T23:55:27.039Z,38.21
2023-02-13T23:57:53.352Z,37.64
